sensor_id;sensor_type;location;lat;lon;timestamp;temperature;humidity
73438;DHT22;62744;56.802;23.964;2022-09-24T00:01:39;8.60;93.30
73438;DHT22;62744;56.802;23.964;2022-09-24T00:04:09;8.70;93.30
73438;DHT22;62744;56.802;23.964;2022-09-24T00:06:45;8.70;93.10
73438;DHT22;62744;56.802;23.964;2022-09-24T00:09:15;8.70;93.10
73438;DHT22;62744;56.802;23.964;2022-09-24T00:11:43;8.60;92.80
73438;DHT22;62744;56.802;23.964;2022-09-24T00:14:12;8.50;92.80
73438;DHT22;62744;56.802;23.964;2022-09-24T00:16:40;8.60;92.90
73438;DHT22;62744;56.802;23.964;2022-09-24T00:19:11;8.70;93.00
73438;DHT22;62744;56.802;23.964;2022-09-24T00:21:39;8.60;92.90
73438;DHT22;62744;56.802;23.964;2022-09-24T00:24:11;8.60;93.00
73438;DHT22;62744;56.802;23.964;2022-09-24T00:26:59;8.60;92.90
73438;DHT22;62744;56.802;23.964;2022-09-24T00:29:27;8.60;93.00
73438;DHT22;62744;56.802;23.964;2022-09-24T00:31:55;8.60;93.40
73438;DHT22;62744;56.802;23.964;2022-09-24T00:34:22;8.50;93.50
73438;DHT22;62744;56.802;23.964;2022-09-24T00:36:50;8.50;93.60
73438;DHT22;62744;56.802;23.964;2022-09-24T00:39:19;8.50;93.90
73438;DHT22;62744;56.802;23.964;2022-09-24T00:41:46;8.30;93.70
73438;DHT22;62744;56.802;23.964;2022-09-24T00:47:23;8.40;93.60
73438;DHT22;62744;56.802;23.964;2022-09-24T00:52:39;8.30;94.10
73438;DHT22;62744;56.802;23.964;2022-09-24T00:55:09;8.30;94.20
73438;DHT22;62744;56.802;23.964;2022-09-24T00:57:38;8.20;93.90
73438;DHT22;62744;56.802;23.964;2022-09-24T01:00:06;8.30;93.90
73438;DHT22;62744;56.802;23.964;2022-09-24T01:02:36;8.40;93.80
73438;DHT22;62744;56.802;23.964;2022-09-24T01:05:05;8.30;93.60
73438;DHT22;62744;56.802;23.964;2022-09-24T01:07:34;8.30;93.50
73438;DHT22;62744;56.802;23.964;2022-09-24T01:10:02;8.20;93.70
73438;DHT22;62744;56.802;23.964;2022-09-24T01:12:49;8.30;93.40
73438;DHT22;62744;56.802;23.964;2022-09-24T01:15:45;8.20;93.50
73438;DHT22;62744;56.802;23.964;2022-09-24T01:18:15;8.20;93.50
73438;DHT22;62744;56.802;23.964;2022-09-24T01:21:01;8.20;93.90
73438;DHT22;62744;56.802;23.964;2022-09-24T01:29:36;8.20;94.00
73438;DHT22;62744;56.802;23.964;2022-09-24T01:32:22;8.00;94.00
73438;DHT22;62744;56.802;23.964;2022-09-24T01:35:07;8.10;93.80
73438;DHT22;62744;56.802;23.964;2022-09-24T01:37:40;8.10;93.80
73438;DHT22;62744;56.802;23.964;2022-09-24T01:40:10;7.90;94.20
73438;DHT22;62744;56.802;23.964;2022-09-24T01:42:39;7.80;94.10
73438;DHT22;62744;56.802;23.964;2022-09-24T01:45:09;7.80;93.70
73438;DHT22;62744;56.802;23.964;2022-09-24T01:47:39;7.70;93.50
73438;DHT22;62744;56.802;23.964;2022-09-24T01:50:12;7.60;93.80
73438;DHT22;62744;56.802;23.964;2022-09-24T01:53:01;7.70;93.90
73438;DHT22;62744;56.802;23.964;2022-09-24T01:55:36;7.50;93.80
73438;DHT22;62744;56.802;23.964;2022-09-24T01:58:10;7.30;93.60
73438;DHT22;62744;56.802;23.964;2022-09-24T02:00:43;7.40;93.60
73438;DHT22;62744;56.802;23.964;2022-09-24T02:03:19;7.40;93.50
73438;DHT22;62744;56.802;23.964;2022-09-24T02:05:59;7.30;93.80
73438;DHT22;62744;56.802;23.964;2022-09-24T02:08:37;7.30;93.60
73438;DHT22;62744;56.802;23.964;2022-09-24T02:11:21;7.30;93.70
73438;DHT22;62744;56.802;23.964;2022-09-24T02:14:07;7.10;93.50
73438;DHT22;62744;56.802;23.964;2022-09-24T02:16:47;7.00;93.90
73438;DHT22;62744;56.802;23.964;2022-09-24T02:19:22;7.00;93.90
73438;DHT22;62744;56.802;23.964;2022-09-24T02:21:51;6.90;94.10
73438;DHT22;62744;56.802;23.964;2022-09-24T02:24:23;6.80;93.90
73438;DHT22;62744;56.802;23.964;2022-09-24T02:26:52;6.80;94.00
73438;DHT22;62744;56.802;23.964;2022-09-24T02:29:21;6.80;93.70
73438;DHT22;62744;56.802;23.964;2022-09-24T02:31:52;6.60;93.60
73438;DHT22;62744;56.802;23.964;2022-09-24T02:34:42;6.50;93.30
73438;DHT22;62744;56.802;23.964;2022-09-24T02:37:14;6.60;93.00
73438;DHT22;62744;56.802;23.964;2022-09-24T02:39:42;6.50;92.90
73438;DHT22;62744;56.802;23.964;2022-09-24T02:42:12;6.40;92.50
73438;DHT22;62744;56.802;23.964;2022-09-24T02:44:40;6.10;92.50
73438;DHT22;62744;56.802;23.964;2022-09-24T02:47:07;6.30;92.10
73438;DHT22;62744;56.802;23.964;2022-09-24T02:49:35;6.20;92.30
73438;DHT22;62744;56.802;23.964;2022-09-24T02:52:03;6.10;92.60
73438;DHT22;62744;56.802;23.964;2022-09-24T02:54:31;5.90;92.50
73438;DHT22;62744;56.802;23.964;2022-09-24T02:56:58;6.00;92.30
73438;DHT22;62744;56.802;23.964;2022-09-24T02:59:25;5.80;92.40
73438;DHT22;62744;56.802;23.964;2022-09-24T03:01:53;5.80;92.10
73438;DHT22;62744;56.802;23.964;2022-09-24T03:04:20;5.70;91.90
73438;DHT22;62744;56.802;23.964;2022-09-24T03:06:48;5.70;92.80
73438;DHT22;62744;56.802;23.964;2022-09-24T03:09:15;5.70;92.90
73438;DHT22;62744;56.802;23.964;2022-09-24T03:11:43;5.60;92.80
73438;DHT22;62744;56.802;23.964;2022-09-24T03:14:10;5.50;92.80
73438;DHT22;62744;56.802;23.964;2022-09-24T03:16:38;5.50;92.90
73438;DHT22;62744;56.802;23.964;2022-09-24T03:19:06;5.60;93.00
73438;DHT22;62744;56.802;23.964;2022-09-24T03:21:33;5.40;92.90
73438;DHT22;62744;56.802;23.964;2022-09-24T03:24:01;5.20;92.70
73438;DHT22;62744;56.802;23.964;2022-09-24T03:26:30;5.20;92.50
73438;DHT22;62744;56.802;23.964;2022-09-24T03:28:58;5.10;92.50
73438;DHT22;62744;56.802;23.964;2022-09-24T03:31:25;5.20;92.30
73438;DHT22;62744;56.802;23.964;2022-09-24T03:33:53;5.30;92.40
73438;DHT22;62744;56.802;23.964;2022-09-24T03:36:22;5.30;92.50
73438;DHT22;62744;56.802;23.964;2022-09-24T03:38:53;5.20;92.40
73438;DHT22;62744;56.802;23.964;2022-09-24T03:41:24;5.20;92.30
73438;DHT22;62744;56.802;23.964;2022-09-24T03:43:52;5.10;92.30
73438;DHT22;62744;56.802;23.964;2022-09-24T03:46:19;5.00;92.20
73438;DHT22;62744;56.802;23.964;2022-09-24T03:48:47;4.90;92.00
73438;DHT22;62744;56.802;23.964;2022-09-24T03:51:17;4.90;91.90
73438;DHT22;62744;56.802;23.964;2022-09-24T03:53:47;4.80;91.90
73438;DHT22;62744;56.802;23.964;2022-09-24T03:56:15;4.70;91.70
73438;DHT22;62744;56.802;23.964;2022-09-24T03:58:42;4.80;91.80
73438;DHT22;62744;56.802;23.964;2022-09-24T04:01:15;4.60;91.30
73438;DHT22;62744;56.802;23.964;2022-09-24T04:03:49;4.70;91.40
73438;DHT22;62744;56.802;23.964;2022-09-24T04:06:16;4.40;91.10
73438;DHT22;62744;56.802;23.964;2022-09-24T04:08:51;4.40;91.10
73438;DHT22;62744;56.802;23.964;2022-09-24T04:11:19;4.30;91.20
73438;DHT22;62744;56.802;23.964;2022-09-24T04:13:46;4.50;91.10
73438;DHT22;62744;56.802;23.964;2022-09-24T04:16:14;4.30;91.20
73438;DHT22;62744;56.802;23.964;2022-09-24T04:18:42;4.30;91.30
73438;DHT22;62744;56.802;23.964;2022-09-24T04:21:09;4.30;91.30
73438;DHT22;62744;56.802;23.964;2022-09-24T04:23:37;4.20;91.10
73438;DHT22;62744;56.802;23.964;2022-09-24T04:26:04;4.30;90.60
73438;DHT22;62744;56.802;23.964;2022-09-24T04:28:32;4.10;90.70
73438;DHT22;62744;56.802;23.964;2022-09-24T04:31:00;4.20;91.10
73438;DHT22;62744;56.802;23.964;2022-09-24T04:33:27;4.40;91.10
73438;DHT22;62744;56.802;23.964;2022-09-24T04:35:55;4.10;91.20
73438;DHT22;62744;56.802;23.964;2022-09-24T04:38:23;4.40;91.10
73438;DHT22;62744;56.802;23.964;2022-09-24T04:40:50;4.30;91.10
73438;DHT22;62744;56.802;23.964;2022-09-24T04:43:18;4.10;90.80
73438;DHT22;62744;56.802;23.964;2022-09-24T04:45:45;4.20;90.70
73438;DHT22;62744;56.802;23.964;2022-09-24T04:48:13;4.40;90.60
73438;DHT22;62744;56.802;23.964;2022-09-24T04:50:40;4.50;91.00
73438;DHT22;62744;56.802;23.964;2022-09-24T04:53:12;4.90;91.00
73438;DHT22;62744;56.802;23.964;2022-09-24T04:55:40;5.40;90.40
73438;DHT22;62744;56.802;23.964;2022-09-24T04:58:08;5.80;89.00
73438;DHT22;62744;56.802;23.964;2022-09-24T05:00:36;6.20;88.30
73438;DHT22;62744;56.802;23.964;2022-09-24T05:03:04;6.60;86.90
73438;DHT22;62744;56.802;23.964;2022-09-24T05:05:32;7.10;85.30
73438;DHT22;62744;56.802;23.964;2022-09-24T05:08:01;7.60;83.50
73438;DHT22;62744;56.802;23.964;2022-09-24T05:10:29;7.90;82.60
73438;DHT22;62744;56.802;23.964;2022-09-24T05:13:00;8.10;81.90
73438;DHT22;62744;56.802;23.964;2022-09-24T05:15:28;8.40;81.60
73438;DHT22;62744;56.802;23.964;2022-09-24T05:17:55;8.50;81.50
73438;DHT22;62744;56.802;23.964;2022-09-24T05:20:23;8.80;81.60
73438;DHT22;62744;56.802;23.964;2022-09-24T05:22:50;9.20;80.90
73438;DHT22;62744;56.802;23.964;2022-09-24T05:25:19;9.40;80.10
73438;DHT22;62744;56.802;23.964;2022-09-24T05:27:49;9.80;79.40
73438;DHT22;62744;56.802;23.964;2022-09-24T05:30:18;9.70;79.10
73438;DHT22;62744;56.802;23.964;2022-09-24T05:32:47;10.10;79.20
73438;DHT22;62744;56.802;23.964;2022-09-24T05:35:22;10.60;78.00
73438;DHT22;62744;56.802;23.964;2022-09-24T05:37:50;10.60;77.60
73438;DHT22;62744;56.802;23.964;2022-09-24T05:40:20;10.90;77.60
73438;DHT22;62744;56.802;23.964;2022-09-24T05:43:06;11.40;77.20
73438;DHT22;62744;56.802;23.964;2022-09-24T05:45:33;11.80;77.20
73438;DHT22;62744;56.802;23.964;2022-09-24T05:48:01;12.10;76.30
73438;DHT22;62744;56.802;23.964;2022-09-24T05:50:28;12.40;76.50
73438;DHT22;62744;56.802;23.964;2022-09-24T05:52:56;12.70;74.70
73438;DHT22;62744;56.802;23.964;2022-09-24T05:55:24;13.20;74.50
73438;DHT22;62744;56.802;23.964;2022-09-24T05:58:16;13.40;74.00
73438;DHT22;62744;56.802;23.964;2022-09-24T06:00:44;13.70;74.10
73438;DHT22;62744;56.802;23.964;2022-09-24T06:03:15;13.80;72.70
73438;DHT22;62744;56.802;23.964;2022-09-24T06:05:48;13.60;73.40
73438;DHT22;62744;56.802;23.964;2022-09-24T06:08:17;13.70;72.90
73438;DHT22;62744;56.802;23.964;2022-09-24T06:10:45;13.90;71.90
73438;DHT22;62744;56.802;23.964;2022-09-24T06:13:16;14.10;72.20
73438;DHT22;62744;56.802;23.964;2022-09-24T06:15:44;14.20;71.50
73438;DHT22;62744;56.802;23.964;2022-09-24T06:18:12;14.50;72.60
73438;DHT22;62744;56.802;23.964;2022-09-24T06:20:40;14.90;71.10
73438;DHT22;62744;56.802;23.964;2022-09-24T06:23:07;15.10;69.70
73438;DHT22;62744;56.802;23.964;2022-09-24T06:25:35;15.20;68.60
73438;DHT22;62744;56.802;23.964;2022-09-24T06:28:03;15.10;68.70
73438;DHT22;62744;56.802;23.964;2022-09-24T06:30:35;15.00;67.40
73438;DHT22;62744;56.802;23.964;2022-09-24T06:33:07;14.90;68.20
73438;DHT22;62744;56.802;23.964;2022-09-24T06:35:39;14.80;69.30
73438;DHT22;62744;56.802;23.964;2022-09-24T06:38:10;15.10;69.00
73438;DHT22;62744;56.802;23.964;2022-09-24T06:40:39;15.00;66.80
73438;DHT22;62744;56.802;23.964;2022-09-24T06:43:09;15.20;67.10
73438;DHT22;62744;56.802;23.964;2022-09-24T06:45:37;14.80;66.40
73438;DHT22;62744;56.802;23.964;2022-09-24T06:48:05;14.30;69.30
73438;DHT22;62744;56.802;23.964;2022-09-24T06:50:33;14.00;69.20
73438;DHT22;62744;56.802;23.964;2022-09-24T06:53:04;14.00;70.30
73438;DHT22;62744;56.802;23.964;2022-09-24T06:55:36;14.00;71.40
73438;DHT22;62744;56.802;23.964;2022-09-24T06:58:09;14.10;71.50
73438;DHT22;62744;56.802;23.964;2022-09-24T07:00:38;14.30;71.30
73438;DHT22;62744;56.802;23.964;2022-09-24T07:03:06;14.50;71.10
73438;DHT22;62744;56.802;23.964;2022-09-24T07:05:36;14.70;70.30
73438;DHT22;62744;56.802;23.964;2022-09-24T07:08:09;14.80;69.60
73438;DHT22;62744;56.802;23.964;2022-09-24T07:10:40;15.00;69.60
73438;DHT22;62744;56.802;23.964;2022-09-24T07:13:08;15.00;70.20
73438;DHT22;62744;56.802;23.964;2022-09-24T07:15:35;15.00;69.10
73438;DHT22;62744;56.802;23.964;2022-09-24T07:18:03;15.30;69.70
73438;DHT22;62744;56.802;23.964;2022-09-24T07:20:30;15.20;69.50
73438;DHT22;62744;56.802;23.964;2022-09-24T07:22:59;15.30;68.30
73438;DHT22;62744;56.802;23.964;2022-09-24T07:25:26;15.30;67.30
73438;DHT22;62744;56.802;23.964;2022-09-24T07:27:54;15.10;67.20
73438;DHT22;62744;56.802;23.964;2022-09-24T07:30:21;15.00;68.20
73438;DHT22;62744;56.802;23.964;2022-09-24T07:32:54;14.80;67.10
73438;DHT22;62744;56.802;23.964;2022-09-24T07:35:21;14.70;68.40
73438;DHT22;62744;56.802;23.964;2022-09-24T07:37:59;14.80;67.40
73438;DHT22;62744;56.802;23.964;2022-09-24T07:40:28;14.90;67.60
73438;DHT22;62744;56.802;23.964;2022-09-24T07:42:56;15.00;67.20
73438;DHT22;62744;56.802;23.964;2022-09-24T07:45:25;14.90;66.80
73438;DHT22;62744;56.802;23.964;2022-09-24T07:48:01;15.00;66.40
73438;DHT22;62744;56.802;23.964;2022-09-24T07:50:31;15.10;66.30
73438;DHT22;62744;56.802;23.964;2022-09-24T07:52:59;15.00;65.00
73438;DHT22;62744;56.802;23.964;2022-09-24T07:55:26;14.90;65.40
73438;DHT22;62744;56.802;23.964;2022-09-24T07:57:54;14.90;65.90
73438;DHT22;62744;56.802;23.964;2022-09-24T08:00:23;14.80;64.40
73438;DHT22;62744;56.802;23.964;2022-09-24T08:02:50;14.70;65.30
73438;DHT22;62744;56.802;23.964;2022-09-24T08:05:19;14.80;65.40
73438;DHT22;62744;56.802;23.964;2022-09-24T08:07:52;15.00;70.00
73438;DHT22;62744;56.802;23.964;2022-09-24T08:10:19;15.80;68.30
73438;DHT22;62744;56.802;23.964;2022-09-24T08:12:47;16.50;65.40
73438;DHT22;62744;56.802;23.964;2022-09-24T08:15:14;16.10;60.10
73438;DHT22;62744;56.802;23.964;2022-09-24T08:17:42;16.00;59.60
73438;DHT22;62744;56.802;23.964;2022-09-24T08:20:10;15.90;61.50
73438;DHT22;62744;56.802;23.964;2022-09-24T08:22:38;15.90;61.50
73438;DHT22;62744;56.802;23.964;2022-09-24T08:25:05;15.80;60.50
73438;DHT22;62744;56.802;23.964;2022-09-24T08:27:33;15.70;59.50
73438;DHT22;62744;56.802;23.964;2022-09-24T08:30:04;15.60;60.20
73438;DHT22;62744;56.802;23.964;2022-09-24T08:32:33;15.40;59.70
73438;DHT22;62744;56.802;23.964;2022-09-24T08:35:00;15.00;60.90
73438;DHT22;62744;56.802;23.964;2022-09-24T08:37:28;15.00;60.80
73438;DHT22;62744;56.802;23.964;2022-09-24T08:39:56;15.00;61.60
73438;DHT22;62744;56.802;23.964;2022-09-24T08:42:43;15.20;61.00
73438;DHT22;62744;56.802;23.964;2022-09-24T08:45:16;15.10;60.80
73438;DHT22;62744;56.802;23.964;2022-09-24T08:48:23;15.10;60.90
73438;DHT22;62744;56.802;23.964;2022-09-24T08:50:58;15.00;59.90
73438;DHT22;62744;56.802;23.964;2022-09-24T08:56:19;15.20;59.60
73438;DHT22;62744;56.802;23.964;2022-09-24T08:59:01;15.20;58.10
73438;DHT22;62744;56.802;23.964;2022-09-24T09:01:49;15.30;57.50
73438;DHT22;62744;56.802;23.964;2022-09-24T09:04:41;15.40;57.90
73438;DHT22;62744;56.802;23.964;2022-09-24T09:07:23;15.60;57.70
73438;DHT22;62744;56.802;23.964;2022-09-24T09:10:02;15.60;56.70
73438;DHT22;62744;56.802;23.964;2022-09-24T09:12:45;15.70;57.10
73438;DHT22;62744;56.802;23.964;2022-09-24T09:15:24;15.70;57.60
73438;DHT22;62744;56.802;23.964;2022-09-24T09:18:36;15.60;57.10
73438;DHT22;62744;56.802;23.964;2022-09-24T09:21:04;15.30;58.60
73438;DHT22;62744;56.802;23.964;2022-09-24T09:23:38;15.10;60.10
73438;DHT22;62744;56.802;23.964;2022-09-24T09:26:09;15.30;60.30
73438;DHT22;62744;56.802;23.964;2022-09-24T09:28:38;15.50;58.70
73438;DHT22;62744;56.802;23.964;2022-09-24T09:34:07;16.00;60.40
73438;DHT22;62744;56.802;23.964;2022-09-24T09:36:57;16.00;59.40
73438;DHT22;62744;56.802;23.964;2022-09-24T09:42:25;15.90;56.80
73438;DHT22;62744;56.802;23.964;2022-09-24T09:44:54;15.80;57.60
73438;DHT22;62744;56.802;23.964;2022-09-24T09:47:44;15.70;57.70
73438;DHT22;62744;56.802;23.964;2022-09-24T09:52:58;15.60;57.10
73438;DHT22;62744;56.802;23.964;2022-09-24T09:55:34;15.60;57.10
73438;DHT22;62744;56.802;23.964;2022-09-24T09:58:18;15.60;57.00
73438;DHT22;62744;56.802;23.964;2022-09-24T10:00:46;15.80;54.60
73438;DHT22;62744;56.802;23.964;2022-09-24T10:03:46;15.70;55.50
73438;DHT22;62744;56.802;23.964;2022-09-24T10:06:26;15.80;53.90
73438;DHT22;62744;56.802;23.964;2022-09-24T10:09:06;15.70;53.90
73438;DHT22;62744;56.802;23.964;2022-09-24T10:11:34;15.80;55.40
73438;DHT22;62744;56.802;23.964;2022-09-24T10:14:08;15.70;53.80
73438;DHT22;62744;56.802;23.964;2022-09-24T10:16:41;15.80;55.10
73438;DHT22;62744;56.802;23.964;2022-09-24T10:19:25;15.90;55.20
73438;DHT22;62744;56.802;23.964;2022-09-24T10:21:54;15.80;54.90
73438;DHT22;62744;56.802;23.964;2022-09-24T10:24:27;15.70;56.50
73438;DHT22;62744;56.802;23.964;2022-09-24T10:26:55;15.70;54.70
73438;DHT22;62744;56.802;23.964;2022-09-24T10:29:29;15.80;55.30
73438;DHT22;62744;56.802;23.964;2022-09-24T10:32:18;16.00;55.10
73438;DHT22;62744;56.802;23.964;2022-09-24T10:35:00;16.10;53.00
73438;DHT22;62744;56.802;23.964;2022-09-24T10:37:29;16.10;52.40
73438;DHT22;62744;56.802;23.964;2022-09-24T10:40:00;16.20;53.60
73438;DHT22;62744;56.802;23.964;2022-09-24T10:42:29;16.20;52.10
73438;DHT22;62744;56.802;23.964;2022-09-24T10:44:59;16.10;51.60
73438;DHT22;62744;56.802;23.964;2022-09-24T10:50:33;16.40;52.70
73438;DHT22;62744;56.802;23.964;2022-09-24T10:53:42;16.50;53.50
73438;DHT22;62744;56.802;23.964;2022-09-24T10:56:36;16.70;54.00
73438;DHT22;62744;56.802;23.964;2022-09-24T11:10:13;16.70;52.50
73438;DHT22;62744;56.802;23.964;2022-09-24T11:12:53;16.60;52.10
73438;DHT22;62744;56.802;23.964;2022-09-24T11:18:51;16.50;52.60
73438;DHT22;62744;56.802;23.964;2022-09-24T11:27:27;16.70;51.90
73438;DHT22;62744;56.802;23.964;2022-09-24T11:30:19;16.70;53.80
73438;DHT22;62744;56.802;23.964;2022-09-24T11:44:12;15.80;54.40
73438;DHT22;62744;56.802;23.964;2022-09-24T11:46:54;15.70;54.80
73438;DHT22;62744;56.802;23.964;2022-09-24T11:49:39;15.60;55.70
73438;DHT22;62744;56.802;23.964;2022-09-24T11:52:13;15.60;56.80
73438;DHT22;62744;56.802;23.964;2022-09-24T11:55:04;15.50;57.90
73438;DHT22;62744;56.802;23.964;2022-09-24T11:57:51;15.40;58.80
73438;DHT22;62744;56.802;23.964;2022-09-24T12:00:20;15.30;59.20
73438;DHT22;62744;56.802;23.964;2022-09-24T12:02:57;15.20;61.20
73438;DHT22;62744;56.802;23.964;2022-09-24T12:05:41;15.40;59.50
73438;DHT22;62744;56.802;23.964;2022-09-24T12:08:17;15.50;58.80
73438;DHT22;62744;56.802;23.964;2022-09-24T12:11:02;15.60;58.50
73438;DHT22;62744;56.802;23.964;2022-09-24T12:13:39;15.70;57.50
73438;DHT22;62744;56.802;23.964;2022-09-24T12:16:12;15.90;58.30
73438;DHT22;62744;56.802;23.964;2022-09-24T12:19:02;16.00;57.00
73438;DHT22;62744;56.802;23.964;2022-09-24T12:21:40;15.80;57.20
73438;DHT22;62744;56.802;23.964;2022-09-24T12:26:50;15.50;55.50
73438;DHT22;62744;56.802;23.964;2022-09-24T12:32:37;15.50;56.30
73438;DHT22;62744;56.802;23.964;2022-09-24T12:38:02;15.60;54.50
73438;DHT22;62744;56.802;23.964;2022-09-24T12:40:54;15.40;56.70
73438;DHT22;62744;56.802;23.964;2022-09-24T12:46:17;15.30;58.30
73438;DHT22;62744;56.802;23.964;2022-09-24T12:48:47;15.30;58.20
73438;DHT22;62744;56.802;23.964;2022-09-24T12:51:16;15.20;58.20
73438;DHT22;62744;56.802;23.964;2022-09-24T12:54:04;15.20;58.30
73438;DHT22;62744;56.802;23.964;2022-09-24T12:56:32;15.20;58.90
73438;DHT22;62744;56.802;23.964;2022-09-24T12:59:01;15.20;59.60
73438;DHT22;62744;56.802;23.964;2022-09-24T13:01:32;15.30;60.40
73438;DHT22;62744;56.802;23.964;2022-09-24T13:06:44;15.40;59.10
73438;DHT22;62744;56.802;23.964;2022-09-24T13:09:38;15.40;58.90
73438;DHT22;62744;56.802;23.964;2022-09-24T13:12:41;15.40;60.20
73438;DHT22;62744;56.802;23.964;2022-09-24T13:15:39;15.30;60.10
73438;DHT22;62744;56.802;23.964;2022-09-24T13:20:38;15.30;59.50
73438;DHT22;62744;56.802;23.964;2022-09-24T13:23:27;15.40;62.30
73438;DHT22;62744;56.802;23.964;2022-09-24T13:26:03;15.60;57.70
73438;DHT22;62744;56.802;23.964;2022-09-24T13:28:37;15.50;57.60
73438;DHT22;62744;56.802;23.964;2022-09-24T13:42:05;14.90;62.20
73438;DHT22;62744;56.802;23.964;2022-09-24T13:44:42;15.00;61.30
73438;DHT22;62744;56.802;23.964;2022-09-24T13:50:19;14.80;60.80
73438;DHT22;62744;56.802;23.964;2022-09-24T13:53:01;14.80;61.90
73438;DHT22;62744;56.802;23.964;2022-09-24T13:55:44;14.90;62.00
73438;DHT22;62744;56.802;23.964;2022-09-24T13:58:45;14.80;60.60
73438;DHT22;62744;56.802;23.964;2022-09-24T14:01:19;14.70;60.50
73438;DHT22;62744;56.802;23.964;2022-09-24T14:03:58;14.60;60.80
73438;DHT22;62744;56.802;23.964;2022-09-24T14:06:36;14.50;61.70
73438;DHT22;62744;56.802;23.964;2022-09-24T14:09:30;14.40;63.00
73438;DHT22;62744;56.802;23.964;2022-09-24T14:12:12;14.40;62.70
73438;DHT22;62744;56.802;23.964;2022-09-24T14:14:45;14.50;62.70
73438;DHT22;62744;56.802;23.964;2022-09-24T14:17:17;14.40;63.00
73438;DHT22;62744;56.802;23.964;2022-09-24T14:19:44;14.30;62.40
73438;DHT22;62744;56.802;23.964;2022-09-24T14:22:25;14.40;62.90
73438;DHT22;62744;56.802;23.964;2022-09-24T14:25:28;14.30;62.30
73438;DHT22;62744;56.802;23.964;2022-09-24T14:27:59;14.20;62.80
73438;DHT22;62744;56.802;23.964;2022-09-24T14:30:29;14.20;63.70
73438;DHT22;62744;56.802;23.964;2022-09-24T14:33:14;14.20;64.30
73438;DHT22;62744;56.802;23.964;2022-09-24T14:35:47;14.10;63.80
73438;DHT22;62744;56.802;23.964;2022-09-24T14:40:58;13.90;65.00
73438;DHT22;62744;56.802;23.964;2022-09-24T14:43:41;13.80;65.00
73438;DHT22;62744;56.802;23.964;2022-09-24T14:46:43;13.70;65.10
73438;DHT22;62744;56.802;23.964;2022-09-24T14:49:22;13.60;66.10
73438;DHT22;62744;56.802;23.964;2022-09-24T14:52:03;13.40;66.40
73438;DHT22;62744;56.802;23.964;2022-09-24T14:54:38;13.40;66.70
73438;DHT22;62744;56.802;23.964;2022-09-24T14:59:46;13.20;67.20
73438;DHT22;62744;56.802;23.964;2022-09-24T15:02:18;13.20;68.10
73438;DHT22;62744;56.802;23.964;2022-09-24T15:04:48;13.20;68.80
73438;DHT22;62744;56.802;23.964;2022-09-24T15:07:20;13.20;69.00
73438;DHT22;62744;56.802;23.964;2022-09-24T15:09:53;13.20;68.70
73438;DHT22;62744;56.802;23.964;2022-09-24T15:12:30;13.10;69.20
73438;DHT22;62744;56.802;23.964;2022-09-24T15:17:48;13.00;69.50
73438;DHT22;62744;56.802;23.964;2022-09-24T15:20:16;13.00;69.80
73438;DHT22;62744;56.802;23.964;2022-09-24T15:22:46;13.00;70.80
73438;DHT22;62744;56.802;23.964;2022-09-24T15:25:14;12.90;70.60
73438;DHT22;62744;56.802;23.964;2022-09-24T15:27:42;12.80;71.00
73438;DHT22;62744;56.802;23.964;2022-09-24T15:30:12;12.70;71.50
73438;DHT22;62744;56.802;23.964;2022-09-24T15:32:44;12.70;71.60
73438;DHT22;62744;56.802;23.964;2022-09-24T15:35:13;12.50;73.50
73438;DHT22;62744;56.802;23.964;2022-09-24T15:37:42;12.40;73.50
73438;DHT22;62744;56.802;23.964;2022-09-24T15:40:21;12.40;74.20
73438;DHT22;62744;56.802;23.964;2022-09-24T15:42:50;12.30;74.10
73438;DHT22;62744;56.802;23.964;2022-09-24T15:45:22;12.10;74.40
73438;DHT22;62744;56.802;23.964;2022-09-24T15:47:51;11.90;75.00
73438;DHT22;62744;56.802;23.964;2022-09-24T15:50:20;11.90;75.30
73438;DHT22;62744;56.802;23.964;2022-09-24T15:52:55;11.60;75.60
73438;DHT22;62744;56.802;23.964;2022-09-24T15:55:24;11.50;76.20
73438;DHT22;62744;56.802;23.964;2022-09-24T15:57:52;11.50;76.50
73438;DHT22;62744;56.802;23.964;2022-09-24T16:00:22;11.30;77.00
73438;DHT22;62744;56.802;23.964;2022-09-24T16:02:52;11.50;78.30
73438;DHT22;62744;56.802;23.964;2022-09-24T16:05:21;11.30;77.90
73438;DHT22;62744;56.802;23.964;2022-09-24T16:07:49;11.20;77.70
73438;DHT22;62744;56.802;23.964;2022-09-24T16:10:17;11.00;78.00
73438;DHT22;62744;56.802;23.964;2022-09-24T16:12:45;10.90;78.10
73438;DHT22;62744;56.802;23.964;2022-09-24T16:15:14;10.70;78.60
73438;DHT22;62744;56.802;23.964;2022-09-24T16:17:42;11.40;81.40
73438;DHT22;62744;56.802;23.964;2022-09-24T16:20:10;11.20;79.60
73438;DHT22;62744;56.802;23.964;2022-09-24T16:22:37;11.00;80.20
73438;DHT22;62744;56.802;23.964;2022-09-24T16:25:05;10.80;79.20
73438;DHT22;62744;56.802;23.964;2022-09-24T16:27:33;10.80;80.40
73438;DHT22;62744;56.802;23.964;2022-09-24T16:30:01;10.80;84.30
73438;DHT22;62744;56.802;23.964;2022-09-24T16:32:29;11.10;80.60
73438;DHT22;62744;56.802;23.964;2022-09-24T16:34:56;10.90;79.50
73438;DHT22;62744;56.802;23.964;2022-09-24T16:37:24;10.60;79.40
73438;DHT22;62744;56.802;23.964;2022-09-24T16:39:52;10.30;79.70
73438;DHT22;62744;56.802;23.964;2022-09-24T16:42:21;10.10;80.00
73438;DHT22;62744;56.802;23.964;2022-09-24T16:44:52;9.90;80.10
73438;DHT22;62744;56.802;23.964;2022-09-24T16:47:19;9.60;80.80
73438;DHT22;62744;56.802;23.964;2022-09-24T16:49:47;9.40;81.30
73438;DHT22;62744;56.802;23.964;2022-09-24T16:52:14;9.30;81.70
73438;DHT22;62744;56.802;23.964;2022-09-24T16:54:42;9.10;82.30
73438;DHT22;62744;56.802;23.964;2022-09-24T16:57:10;9.00;82.80
73438;DHT22;62744;56.802;23.964;2022-09-24T16:59:39;8.80;83.00
73438;DHT22;62744;56.802;23.964;2022-09-24T17:02:08;8.70;83.30
73438;DHT22;62744;56.802;23.964;2022-09-24T17:04:36;8.60;83.50
73438;DHT22;62744;56.802;23.964;2022-09-24T17:07:05;8.50;83.60
73438;DHT22;62744;56.802;23.964;2022-09-24T17:09:33;8.40;83.30
73438;DHT22;62744;56.802;23.964;2022-09-24T17:12:19;8.40;84.40
73438;DHT22;62744;56.802;23.964;2022-09-24T17:14:47;8.30;84.90
73438;DHT22;62744;56.802;23.964;2022-09-24T17:17:14;8.20;84.50
73438;DHT22;62744;56.802;23.964;2022-09-24T17:19:41;8.10;84.40
73438;DHT22;62744;56.802;23.964;2022-09-24T17:22:09;8.00;84.60
73438;DHT22;62744;56.802;23.964;2022-09-24T17:24:36;8.00;84.90
73438;DHT22;62744;56.802;23.964;2022-09-24T17:27:06;8.00;85.90
73438;DHT22;62744;56.802;23.964;2022-09-24T17:29:34;7.90;86.00
73438;DHT22;62744;56.802;23.964;2022-09-24T17:32:02;7.70;86.50
73438;DHT22;62744;56.802;23.964;2022-09-24T17:34:30;7.70;86.40